Terminal Aerodrome Forecast
Issued by NWS

Home | Current Version | Previous Version | Text Only | Print | Product List | Glossary On
Versions: 1 2 3 4 5 6 7 8 9 10 11 12 13 14 15 16 17 18 19 20
000
FTAK31 PANC 130631 AAA
TAFAVD
TAF AMD
PAVD 130631Z 1307/1406 VRB03KT 1/2SM FG SCT001 BKN045
      TEMPO 1307/1309 5SM BR
     FM131200 VRB03KT 6SM -SN SCT030 OVC050
     FM131600 VRB03KT 4SM -RASN BR FEW003 SCT015 OVC040
     FM132000 VRB03KT 6SM -RA BKN015 OVC035
     FM140000 VRB03KT 3SM RA BR SCT001 OVC015
      AMD LTD TO CLD VIS AND WIND=

USA.gov is the U.S. government's official web portal to all federal, state and local government web resources and services.